Time;durP1;ratioP1;P1;durP2;ratioP2;P2;SDS_P1;SDS_P2;PMS_P1;PMS_P2;Temp;Humidity;BMP_temperature;BMP_pressure;BME280_temperature;BME280_humidity;BME280_pressure;Samples;Min_cycle;Max_cycle;Signal;HPM_P1;HPM_P2
2022/08/04 00:01:11;;;;;;;6.30;4.03;;;;;;;18.47;100.00;97454.22;5056796;28;20068;-81
2022/08/04 00:03:48;;;;;;;7.13;3.70;;;;;;;18.58;100.00;97461.38;5011837;28;20515;-81
2022/08/04 00:06:27;;;;;;;4.18;3.38;;;;;;;18.50;100.00;97456.66;5040455;28;20033;-80
2022/08/04 00:08:59;;;;;;;5.03;3.70;;;;;;;18.59;100.00;97463.06;5015090;28;20116;-81
2022/08/04 00:11:30;;;;;;;4.82;3.80;;;;;;;18.53;100.00;97464.50;5019172;28;20040;-80
2022/08/04 00:13:55;;;;;;;4.90;3.90;;;;;;;18.52;100.00;97468.19;5018503;28;20037;-80
2022/08/04 00:16:22;;;;;;;6.07;4.00;;;;;;;18.54;100.00;97466.22;5028295;28;20038;-80
2022/08/04 00:18:56;;;;;;;5.18;4.15;;;;;;;18.57;100.00;97476.78;5021074;28;20029;-80
2022/08/04 00:21:24;;;;;;;5.60;3.85;;;;;;;18.55;100.00;97467.91;5038930;28;20028;-80
2022/08/04 00:23:50;;;;;;;5.13;4.10;;;;;;;18.52;100.00;97462.78;5020412;28;20092;-81
2022/08/04 00:26:17;;;;;;;5.25;4.22;;;;;;;18.55;100.00;97467.09;5022112;28;20033;-81
2022/08/04 00:28:43;;;;;;;6.93;3.97;;;;;;;18.45;100.00;97464.38;5023390;28;20022;-81
2022/08/04 00:31:14;;;;;;;4.93;4.00;;;;;;;18.47;100.00;97458.78;5031077;28;20036;-81
2022/08/04 00:33:43;;;;;;;4.85;3.70;;;;;;;18.47;100.00;97458.78;5024473;28;20040;-81
2022/08/04 00:36:10;;;;;;;6.43;3.83;;;;;;;18.44;100.00;97459.94;5032254;28;20102;-81
2022/08/04 00:38:36;;;;;;;6.40;3.80;;;;;;;18.35;100.00;97456.25;5026569;28;20014;-81
2022/08/04 00:41:05;;;;;;;8.80;3.60;;;;;;;18.41;100.00;97469.22;5016470;28;20319;-80
2022/08/04 00:43:31;;;;;;;5.07;3.70;;;;;;;18.30;100.00;97468.53;5039444;28;20493;-82
2022/08/04 00:46:34;;;;;;;4.82;3.30;;;;;;;18.19;100.00;97474.06;5037535;28;20041;-79
2022/08/04 00:49:27;;;;;;;8.57;4.03;;;;;;;18.11;100.00;97472.09;5037180;28;20029;-81
2022/08/04 00:52:17;;;;;;;4.20;3.63;;;;;;;18.06;100.00;97476.22;5036590;28;20404;-80
2022/08/04 00:55:06;;;;;;;5.97;3.67;;;;;;;17.96;100.00;97475.38;5036996;28;20029;-80
2022/08/04 00:57:54;;;;;;;4.80;4.20;;;;;;;17.87;100.00;97475.22;5024783;28;20560;-81
2022/08/04 01:00:21;;;;;;;4.53;3.97;;;;;;;17.91;100.00;97472.22;5036126;28;20116;-79
2022/08/04 01:03:04;;;;;;;6.88;4.10;;;;;;;17.95;100.00;97474.53;5021420;28;20423;-80
2022/08/04 01:05:45;;;;;;;7.65;4.30;;;;;;;17.97;100.00;97463.53;5041196;28;20136;-80
2022/08/04 01:08:28;;;;;;;5.32;4.10;;;;;;;18.03;100.00;97468.38;5048359;28;20036;-80
2022/08/04 01:11:03;;;;;;;5.18;3.95;;;;;;;17.94;100.00;97470.09;5041082;28;20033;-80
2022/08/04 01:13:32;;;;;;;6.93;3.88;;;;;;;17.92;100.00;97468.53;5031180;28;20033;-81
2022/08/04 01:16:10;;;;;;;5.25;3.90;;;;;;;17.77;100.00;97473.53;5034031;28;20377;-81
2022/08/04 01:18:48;;;;;;;6.70;4.20;;;;;;;17.70;100.00;97469.66;5017588;28;20086;-82
2022/08/04 01:21:16;;;;;;;5.35;4.03;;;;;;;17.70;100.00;97475.94;5013370;28;20033;-80
2022/08/04 01:24:10;;;;;;;5.13;3.80;;;;;;;17.59;100.00;97476.06;5039295;28;20399;-80
2022/08/04 01:27:01;;;;;;;4.80;3.72;;;;;;;17.51;100.00;97475.00;5028867;28;20021;-82
2022/08/04 01:29:30;;;;;;;7.38;4.25;;;;;;;17.56;100.00;97473.66;5055954;28;20026;-80
2022/08/04 01:32:11;;;;;;;6.97;3.95;;;;;;;17.60;100.00;97474.19;5107230;27;20066;-81
2022/08/04 01:35:10;;;;;;;6.47;3.92;;;;;;;17.56;100.00;97462.81;5041533;28;20124;-81
2022/08/04 01:37:54;;;;;;;8.85;3.70;;;;;;;17.58;100.00;97477.06;5040666;28;20104;-81
2022/08/04 01:40:20;;;;;;;4.80;3.78;;;;;;;17.50;100.00;97490.41;5021614;28;20014;-81
2022/08/04 01:42:49;;;;;;;5.25;4.03;;;;;;;17.56;100.00;97484.47;5027196;28;20400;-81
2022/08/04 01:45:14;;;;;;;7.88;4.15;;;;;;;17.54;100.00;97474.72;5045486;28;20039;-81
2022/08/04 01:47:47;;;;;;;7.47;4.25;;;;;;;17.56;100.00;97478.19;5031298;28;20021;-81
2022/08/04 01:50:13;;;;;;;6.07;4.20;;;;;;;17.50;100.00;97474.16;5021227;28;20033;-82
2022/08/04 01:52:41;;;;;;;5.78;3.85;;;;;;;17.51;100.00;97465.03;5016758;28;20152;-81
2022/08/04 01:55:09;;;;;;;5.13;4.38;;;;;;;17.53;100.00;97468.47;5021869;28;20029;-81
2022/08/04 01:58:00;;;;;;;5.30;4.20;;;;;;;17.43;100.00;97475.72;5028042;28;20107;-81
2022/08/04 02:00:27;;;;;;;5.57;3.83;;;;;;;17.48;100.00;97473.44;5031391;28;20045;-81
2022/08/04 02:02:55;;;;;;;6.47;4.60;;;;;;;17.50;100.00;97468.75;5041376;28;20061;-80
2022/08/04 02:05:24;;;;;;;7.43;4.88;;;;;;;17.47;100.00;97462.78;5025009;28;20029;-81
2022/08/04 02:08:07;;;;;;;8.60;4.00;;;;;;;17.46;100.00;97471.88;5020587;28;20096;-81
2022/08/04 02:11:14;;;;;;;6.18;4.55;;;;;;;17.50;100.00;97471.47;5029637;28;20104;-81
2022/08/04 02:14:08;;;;;;;5.20;4.50;;;;;;;17.46;100.00;97470.03;5018392;28;20596;-81
2022/08/04 02:16:43;;;;;;;8.45;4.82;;;;;;;17.55;100.00;97471.06;5024975;28;20173;-82
2022/08/04 02:19:21;;;;;;;8.57;4.40;;;;;;;17.60;100.00;97466.94;5034278;28;20051;-81
2022/08/04 02:21:56;;;;;;;11.70;5.32;;;;;;;17.59;100.00;97465.25;5038279;28;20047;-81
2022/08/04 02:24:25;;;;;;;6.45;4.20;;;;;;;17.65;100.00;97478.22;5042780;28;20522;-80
2022/08/04 02:26:52;;;;;;;5.03;4.30;;;;;;;17.62;100.00;97473.09;5036751;28;20460;-81
2022/08/04 02:29:35;;;;;;;9.48;4.65;;;;;;;17.54;100.00;97472.00;5024445;28;20029;-81
2022/08/04 02:32:06;;;;;;;13.35;5.28;;;;;;;17.62;100.00;97489.31;5023274;28;20492;-80
2022/08/04 02:35:13;;;;;;;10.13;5.10;;;;;;;17.58;100.00;97482.47;5020911;28;20540;-81
2022/08/04 02:37:45;;;;;;;10.90;5.07;;;;;;;17.56;100.00;97483.59;5037560;28;20041;-80
2022/08/04 02:40:11;;;;;;;7.32;5.13;;;;;;;17.49;100.00;97477.84;5019840;28;20039;-81
2022/08/04 02:42:37;;;;;;;9.75;5.43;;;;;;;17.42;100.00;97479.41;5012665;28;20052;-82
2022/08/04 02:45:04;;;;;;;10.07;5.22;;;;;;;17.44;100.00;97476.56;5039646;28;20484;-81
2022/08/04 02:47:31;;;;;;;7.13;4.68;;;;;;;17.43;100.00;97486.53;5025625;28;20112;-82
2022/08/04 02:49:57;;;;;;;6.40;3.85;;;;;;;17.35;100.00;97480.94;5042378;28;20033;-78
2022/08/04 02:52:24;;;;;;;7.57;4.10;;;;;;;17.39;100.00;97486.94;5039844;28;20021;-79
2022/08/04 02:55:00;;;;;;;11.27;5.22;;;;;;;17.36;100.00;97477.25;5038390;28;20091;-79
2022/08/04 02:57:28;;;;;;;7.10;5.15;;;;;;;17.45;100.00;97471.00;5039600;28;20446;-79
2022/08/04 03:00:10;;;;;;;7.28;5.25;;;;;;;17.40;100.00;97484.09;5034167;28;20032;-79
2022/08/04 03:02:51;;;;;;;11.70;5.07;;;;;;;17.44;100.00;97482.84;5040082;28;20049;-78
2022/08/04 03:05:43;;;;;;;11.40;5.85;;;;;;;17.35;100.00;97478.22;5033096;28;20151;-80
2022/08/04 03:08:30;;;;;;;11.23;5.40;;;;;;;17.26;100.00;97476.38;5019454;28;20412;-81
2022/08/04 03:10:59;;;;;;;12.88;5.45;;;;;;;17.25;100.00;97469.28;5023426;28;20132;-81
2022/08/04 03:13:49;;;;;;;9.48;4.80;;;;;;;17.25;100.00;97480.09;5036067;28;20040;-81
2022/08/04 03:16:52;;;;;;;7.50;4.80;;;;;;;17.29;100.00;97478.78;5019954;28;20445;-82
2022/08/04 03:19:36;;;;;;;;;;;;;;;17.29;100.00;97478.78;5036832;28;20124;-82
2022/08/04 03:22:34;;;;;;;5.20;4.28;;;;;;;17.22;100.00;97473.09;5040216;28;19919;-82
2022/08/04 03:25:15;;;;;;;8.93;4.32;;;;;;;17.28;100.00;97480.66;5043891;28;20503;-82
2022/08/04 03:28:07;;;;;;;6.80;5.13;;;;;;;17.37;100.00;97478.97;5035488;28;20101;-82
2022/08/04 03:30:54;;;;;;;7.28;4.55;;;;;;;17.46;100.00;97485.38;5030177;28;20098;-81
2022/08/04 03:33:29;;;;;;;6.53;4.40;;;;;;;17.48;100.00;97483.38;5037334;28;20522;-82
2022/08/04 03:36:26;;;;;;;9.05;4.80;;;;;;;17.46;100.00;97479.97;5038464;28;20041;-82
2022/08/04 03:39:26;;;;;;;9.40;4.40;;;;;;;17.47;100.00;97479.00;5033637;28;20496;-82
2022/08/04 03:42:00;;;;;;;7.30;4.75;;;;;;;17.50;100.00;97479.59;5040481;28;20032;-81
2022/08/04 03:44:41;;;;;;;6.35;4.68;;;;;;;17.54;100.00;97480.13;5029697;28;20488;-81
2022/08/04 03:47:44;;;;;;;5.82;4.32;;;;;;;17.61;100.00;97475.91;5037362;28;20039;-82
2022/08/04 03:50:28;;;;;;;8.20;4.45;;;;;;;17.69;100.00;97473.34;5033250;28;20033;-82
2022/08/04 03:53:15;;;;;;;12.57;6.97;;;;;;;17.75;100.00;97478.19;5028962;28;20560;-80
2022/08/04 03:56:07;;;;;;;11.85;5.55;;;;;;;17.77;100.00;97471.66;5032067;28;20022;-81
2022/08/04 03:58:51;;;;;;;12.67;5.00;;;;;;;17.78;100.00;97472.53;5026896;28;20086;-82
2022/08/04 04:01:43;;;;;;;7.80;4.95;;;;;;;17.79;100.00;97474.22;5034924;28;20431;-82
2022/08/04 04:04:26;;;;;;;8.53;5.23;;;;;;;17.81;100.00;97489.31;5046626;28;20056;-81
2022/08/04 04:07:30;;;;;;;15.05;7.68;;;;;;;17.95;100.00;97489.91;5029889;28;20508;-81
2022/08/04 04:10:17;;;;;;;10.73;5.53;;;;;;;18.12;100.00;97486.50;5039292;28;20088;-81
2022/08/04 04:13:05;;;;;;;13.73;5.72;;;;;;;18.29;100.00;97489.31;5031201;28;20022;-81
2022/08/04 04:16:04;;;;;;;17.30;5.97;;;;;;;18.37;100.00;97494.00;5054119;27;20029;-82
2022/08/04 04:19:01;;;;;;;13.02;5.20;;;;;;;18.25;100.00;97490.59;5020101;28;20021;-81
2022/08/04 04:21:44;;;;;;;10.70;5.65;;;;;;;18.17;100.00;97493.19;5018309;28;20494;-81
2022/08/04 04:24:32;;;;;;;16.77;6.32;;;;;;;18.24;100.00;97497.00;5041879;28;20044;-81
2022/08/04 04:27:19;;;;;;;26.15;7.88;;;;;;;18.44;100.00;97487.03;5016016;28;20029;-82
2022/08/04 04:29:47;;;;;;;11.10;6.07;;;;;;;18.64;100.00;97499.56;5031790;28;20045;-82
2022/08/04 04:32:21;;;;;;;17.30;6.35;;;;;;;19.33;100.00;97493.75;5040512;28;20026;-81
2022/08/04 04:35:01;;;;;;;11.77;5.20;;;;;;;19.54;96.54;97490.78;5038829;28;20116;-81
2022/08/04 04:37:37;;;;;;;12.73;6.13;;;;;;;19.44;96.75;97490.88;5033516;28;20035;-82
2022/08/04 04:40:54;;;;;;;10.75;6.40;;;;;;;19.58;95.58;97498.50;5041534;28;20036;-82
2022/08/04 04:43:37;;;;;;;10.55;6.00;;;;;;;19.53;96.21;97498.09;5008183;28;20034;-82
2022/08/04 04:46:47;;;;;;;14.30;6.55;;;;;;;19.61;95.95;97500.91;5034214;28;20029;-81
2022/08/04 04:49:20;;;;;;;14.15;8.05;;;;;;;19.68;95.94;97504.72;5042670;28;20543;-81
2022/08/04 04:52:03;;;;;;;14.48;7.18;;;;;;;19.83;94.42;97505.91;5025823;28;20025;-82
2022/08/04 04:54:32;;;;;;;;;;;;;;;19.83;93.48;97499.63;5104870;28;20036;-82
2022/08/04 04:57:19;;;;;;;25.30;7.72;;;;;;;19.73;94.56;97499.69;5039151;28;19909;-83
2022/08/04 04:59:55;;;;;;;14.63;7.72;;;;;;;19.81;94.01;97499.75;5014931;28;20026;-82
2022/08/04 05:02:27;;;;;;;22.08;10.05;;;;;;;19.99;93.07;97514.19;5039416;28;20099;-82
2022/08/04 05:05:01;;;;;;;27.85;11.05;;;;;;;20.07;93.05;97516.16;5033466;28;20041;-81
2022/08/04 05:08:04;;;;;;;32.67;12.35;;;;;;;20.25;92.09;97519.72;5044297;28;20133;-82
2022/08/04 05:10:46;;;;;;;14.57;7.22;;;;;;;20.35;90.03;97516.97;5007842;28;20045;-82
2022/08/04 05:13:56;;;;;;;14.23;7.95;;;;;;;20.46;89.62;97523.00;5007917;28;20030;-81
2022/08/04 05:16:40;;;;;;;16.60;7.00;;;;;;;20.61;88.78;97514.31;5063966;28;20035;-81
2022/08/04 05:19:06;;;;;;;18.85;7.32;;;;;;;20.98;87.10;97521.19;5075302;28;20380;-81
2022/08/04 05:21:34;;;;;;;18.67;7.32;;;;;;;21.18;85.63;97526.44;5043704;28;20044;-81
2022/08/04 05:24:04;;;;;;;14.35;6.30;;;;;;;21.33;84.85;97522.97;5041809;28;20060;-82
2022/08/04 05:26:32;;;;;;;13.70;7.13;;;;;;;21.36;84.57;97525.34;5026331;28;20025;-82
2022/08/04 05:29:02;;;;;;;13.98;7.25;;;;;;;21.65;83.05;97519.53;5017627;28;20040;-82
2022/08/04 05:31:36;;;;;;;21.20;6.85;;;;;;;22.10;81.08;97528.22;5024479;28;20037;-81
2022/08/04 05:34:08;;;;;;;13.35;6.00;;;;;;;23.33;74.62;97524.44;5020714;28;20033;-81
2022/08/04 05:36:41;;;;;;;9.48;5.88;;;;;;;25.09;67.69;97520.84;5111372;27;20020;-81
2022/08/04 05:39:11;;;;;;;12.60;5.78;;;;;;;26.67;59.54;97513.66;5028999;28;20025;-81
2022/08/04 05:41:38;;;;;;;12.75;6.72;;;;;;;26.29;58.45;97514.94;5025528;28;20485;-81
2022/08/04 05:44:04;;;;;;;13.13;4.88;;;;;;;25.60;60.57;97524.56;5024417;28;20029;-82
2022/08/04 05:46:29;;;;;;;6.28;4.30;;;;;;;26.55;58.28;97525.38;5045141;28;20044;-81
2022/08/04 05:48:55;;;;;;;7.93;4.22;;;;;;;27.52;55.71;97510.81;5028621;28;20052;-82
2022/08/04 05:51:21;;;;;;;6.25;4.47;;;;;;;26.77;55.83;97524.28;5045112;28;20132;-83
2022/08/04 05:53:47;;;;;;;14.85;5.55;;;;;;;27.36;55.18;97519.31;5020032;28;20036;-82
2022/08/04 05:56:14;;;;;;;6.90;4.50;;;;;;;27.66;52.95;97515.31;5017077;28;20025;-81
2022/08/04 05:58:40;;;;;;;10.18;4.50;;;;;;;28.88;50.51;97511.53;5020886;28;20018;-81
2022/08/04 06:01:07;;;;;;;10.90;3.70;;;;;;;29.18;48.35;97506.44;5024256;28;20559;-81
2022/08/04 06:03:34;;;;;;;6.50;4.22;;;;;;;28.24;49.71;97505.66;5032555;28;20055;-81
2022/08/04 06:06:00;;;;;;;5.78;4.72;;;;;;;27.63;52.09;97523.97;5034871;28;20029;-81
2022/08/04 06:08:27;;;;;;;9.73;4.22;;;;;;;29.01;49.60;97524.44;5033319;28;20061;-82
2022/08/04 06:10:56;;;;;;;13.38;5.35;;;;;;;30.97;45.24;97503.69;5026221;28;20086;-82
2022/08/04 06:13:28;;;;;;;12.93;4.30;;;;;;;30.74;44.73;97508.91;5044306;28;20078;-82
2022/08/04 06:15:55;;;;;;;10.80;3.92;;;;;;;29.95;45.52;97511.22;5022243;28;20029;-83
2022/08/04 06:18:21;;;;;;;8.60;3.85;;;;;;;30.92;44.24;97511.75;5020554;28;20111;-82
2022/08/04 06:20:48;;;;;;;8.25;4.30;;;;;;;30.97;43.26;97520.28;5041314;28;20400;-82
2022/08/04 06:23:15;;;;;;;7.55;4.10;;;;;;;29.41;46.34;97517.06;5017215;28;20021;-82
2022/08/04 06:25:45;;;;;;;8.68;3.88;;;;;;;28.62;47.95;97527.13;5023756;28;20488;-82
2022/08/04 06:28:12;;;;;;;4.75;3.70;;;;;;;28.27;48.64;97518.16;5032350;28;20064;-81
2022/08/04 06:30:39;;;;;;;5.30;4.05;;;;;;;27.98;49.28;97524.78;5044873;28;20073;-81
2022/08/04 06:33:23;;;;;;;14.32;4.85;;;;;;;28.10;49.27;97522.31;5049642;28;20017;-82
2022/08/04 06:35:55;;;;;;;7.03;3.97;;;;;;;28.52;48.66;97528.38;5030687;28;20025;-81
2022/08/04 06:38:23;;;;;;;7.97;3.80;;;;;;;28.52;48.17;97527.53;5033449;28;20116;-82
2022/08/04 06:40:49;;;;;;;8.32;3.83;;;;;;;28.52;48.20;97517.38;5024327;28;20097;-82
2022/08/04 06:43:15;;;;;;;11.50;4.55;;;;;;;28.53;48.14;97520.97;5033139;28;20042;-82
2022/08/04 06:45:42;;;;;;;8.63;5.25;;;;;;;27.72;48.65;97519.13;5022753;28;20072;-82
2022/08/04 06:48:08;;;;;;;5.50;4.03;;;;;;;28.48;48.02;97523.53;5044677;28;20128;-81
2022/08/04 06:50:34;;;;;;;10.25;3.75;;;;;;;28.56;47.18;97522.47;5048399;28;20113;-82
2022/08/04 06:53:00;;;;;;;9.10;3.88;;;;;;;28.39;46.81;97528.34;5044437;28;20032;-81
2022/08/04 06:55:26;;;;;;;12.52;3.97;;;;;;;29.40;45.93;97505.19;5019443;28;20029;-81
2022/08/04 06:57:52;;;;;;;13.57;4.25;;;;;;;29.65;45.96;97518.28;5031795;28;20047;-82
2022/08/04 07:00:18;;;;;;;6.00;3.83;;;;;;;30.69;44.04;97510.66;5040416;28;20555;-81
2022/08/04 07:02:48;;;;;;;12.45;4.55;;;;;;;31.23;42.35;97510.03;5019073;28;20049;-81
2022/08/04 07:05:15;;;;;;;9.10;4.25;;;;;;;31.42;41.09;97501.56;5033554;28;20036;-81
2022/08/04 07:07:41;;;;;;;7.30;4.00;;;;;;;30.56;42.65;97506.91;5015906;28;20026;-81
2022/08/04 07:10:08;;;;;;;5.80;4.03;;;;;;;30.42;42.43;97508.06;5041051;28;20040;-82
2022/08/04 07:12:35;;;;;;;8.85;3.95;;;;;;;30.79;41.93;97499.97;5016616;28;20021;-82
2022/08/04 07:15:00;;;;;;;8.63;3.97;;;;;;;31.25;40.79;97494.09;5044201;28;20024;-83
2022/08/04 07:17:27;;;;;;;7.53;3.80;;;;;;;31.97;40.02;97499.72;5023254;28;20104;-82
2022/08/04 07:19:53;;;;;;;8.07;3.38;;;;;;;32.64;38.66;97501.44;5035477;28;20025;-82
2022/08/04 07:22:19;;;;;;;4.78;3.40;;;;;;;31.95;39.11;97501.88;5024860;28;20025;-83
2022/08/04 07:24:44;;;;;;;4.60;3.70;;;;;;;30.17;42.04;97489.69;5012825;28;20026;-82
2022/08/04 07:27:10;;;;;;;4.38;3.58;;;;;;;30.27;42.06;97495.59;5042617;28;20056;-82
2022/08/04 07:29:37;;;;;;;11.05;3.90;;;;;;;32.36;38.91;97478.19;5011677;28;20029;-83
2022/08/04 07:32:04;;;;;;;9.40;4.10;;;;;;;31.59;40.19;97494.41;5035593;28;20493;-83
2022/08/04 07:34:31;;;;;;;17.50;4.60;;;;;;;32.36;39.78;97498.41;5039389;28;20403;-83
2022/08/04 07:36:57;;;;;;;7.65;4.38;;;;;;;34.20;36.90;97495.31;5032431;28;20094;-83
2022/08/04 07:39:25;;;;;;;20.63;4.30;;;;;;;36.62;33.09;97476.22;5035491;28;20026;-83
2022/08/04 07:41:52;;;;;;;15.00;4.72;;;;;;;37.57;31.91;97476.31;5035746;28;20063;-81
2022/08/04 07:44:17;;;;;;;11.00;4.85;;;;;;;38.49;30.82;97481.31;5023320;28;20031;-83
2022/08/04 07:46:44;;;;;;;3.45;3.15;;;;;;;35.88;32.38;97476.66;5020533;28;20029;-82
2022/08/04 07:49:11;;;;;;;5.75;3.15;;;;;;;35.87;32.44;97474.97;5046975;28;20176;-82
2022/08/04 07:51:38;;;;;;;6.15;3.20;;;;;;;34.26;34.81;97481.28;5020553;28;20036;-82
2022/08/04 07:54:07;;;;;;;6.35;4.55;;;;;;;35.60;33.44;97473.16;5023161;28;20032;-82
2022/08/04 07:56:35;;;;;;;6.10;4.45;;;;;;;37.08;31.20;97460.81;5022198;28;20122;-83
2022/08/04 07:59:01;;;;;;;5.13;3.58;;;;;;;37.32;30.90;97465.75;5016311;28;20040;-83
2022/08/04 08:01:26;;;;;;;12.02;3.40;;;;;;;38.15;29.63;97468.88;5046455;28;20032;-82
2022/08/04 08:03:54;;;;;;;4.97;3.70;;;;;;;37.21;30.74;97468.75;5027535;28;20048;-83
2022/08/04 08:06:20;;;;;;;6.00;3.15;;;;;;;39.01;28.95;97462.41;5014744;28;20024;-83
2022/08/04 08:08:46;;;;;;;3.80;3.17;;;;;;;39.45;28.52;97465.53;5037441;28;20028;-83
2022/08/04 08:11:11;;;;;;;3.65;2.92;;;;;;;40.24;26.98;97455.59;5019582;28;20030;-81
2022/08/04 08:13:37;;;;;;;7.32;3.30;;;;;;;40.15;26.86;97446.09;5036456;28;20040;-83
2022/08/04 08:16:04;;;;;;;4.15;2.67;;;;;;;38.53;27.88;97451.69;5040470;28;20109;-83
2022/08/04 08:18:30;;;;;;;3.95;3.15;;;;;;;37.42;29.69;97453.81;5032853;28;20120;-83
2022/08/04 08:20:57;;;;;;;3.33;3.03;;;;;;;37.88;29.28;97463.38;5013908;28;20454;-82
2022/08/04 08:23:23;;;;;;;3.78;3.03;;;;;;;36.39;30.26;97460.63;5035346;28;20028;-83
2022/08/04 08:25:49;;;;;;;2.75;2.53;;;;;;;36.86;29.42;97467.28;5039666;28;20086;-82
2022/08/04 08:28:15;;;;;;;7.57;3.15;;;;;;;37.37;28.72;97462.19;5033021;28;20445;-81
2022/08/04 08:30:41;;;;;;;5.57;2.55;;;;;;;39.14;27.14;97449.00;5032790;28;20033;-83
2022/08/04 08:33:09;;;;;;;8.05;3.40;;;;;;;39.64;25.41;97443.38;5044985;28;20155;-81
2022/08/04 08:35:44;;;;;;;7.03;3.17;;;;;;;39.96;25.62;97449.47;5026581;28;20029;-82
2022/08/04 08:38:13;;;;;;;5.18;2.92;;;;;;;40.65;25.44;97456.25;5018224;28;20539;-83
2022/08/04 08:41:33;;;;;;;3.17;2.88;;;;;;;41.03;24.16;97456.31;5022859;28;20467;-82
2022/08/04 08:44:17;;;;;;;3.13;2.83;;;;;;;38.70;27.04;97457.84;4986622;28;20034;-81
2022/08/04 08:47:08;;;;;;;3.25;2.83;;;;;;;40.91;24.68;97441.78;5034641;28;20030;-81
2022/08/04 08:50:03;;;;;;;10.65;3.22;;;;;;;42.67;23.10;97446.78;5037196;28;20107;-82
2022/08/04 08:52:49;;;;;;;3.80;3.38;;;;;;;43.79;22.30;97441.00;5023718;28;20069;-83
2022/08/04 08:55:34;;;;;;;4.53;3.05;;;;;;;41.18;24.33;97449.72;5044720;28;20029;-83
2022/08/04 08:58:24;;;;;;;3.47;2.60;;;;;;;40.73;24.86;97447.22;5042582;28;20036;-83
2022/08/04 09:01:12;;;;;;;3.58;3.20;;;;;;;40.82;24.39;97445.47;5046795;28;20096;-83
2022/08/04 09:03:43;;;;;;;16.02;4.30;;;;;;;41.99;23.22;97441.41;5021341;28;20068;-83
2022/08/04 09:06:30;;;;;;;5.35;3.05;;;;;;;40.67;24.33;97446.41;5045697;28;20060;-83
2022/08/04 09:09:02;;;;;;;3.17;2.72;;;;;;;38.27;26.72;97433.94;5041889;28;20552;-83
2022/08/04 09:11:37;;;;;;;5.43;3.65;;;;;;;40.46;24.33;97431.63;5035233;28;20040;-83
2022/08/04 09:14:10;;;;;;;9.38;2.63;;;;;;;41.23;23.53;97434.78;5018330;28;20029;-83
2022/08/04 09:17:02;;;;;;;4.78;2.53;;;;;;;40.41;24.60;97430.81;5034628;28;20041;-84
2022/08/04 09:20:01;;;;;;;3.03;2.72;;;;;;;38.84;25.72;97433.88;5014034;28;20021;-83
2022/08/04 09:22:38;;;;;;;3.47;3.17;;;;;;;37.32;27.43;97425.81;5034064;28;20029;-83
2022/08/04 09:25:10;;;;;;;3.90;3.10;;;;;;;37.60;27.35;97422.69;5046663;28;20033;-83
2022/08/04 09:27:51;;;;;;;4.70;2.90;;;;;;;38.33;26.29;97426.44;5046372;28;20480;-83
2022/08/04 09:30:28;;;;;;;8.82;2.90;;;;;;;40.38;24.63;97418.22;5019134;28;20030;-82
2022/08/04 09:33:15;;;;;;;2.80;2.60;;;;;;;42.52;22.68;97410.34;5037814;28;20056;-83
2022/08/04 09:35:51;;;;;;;3.55;2.63;;;;;;;43.54;21.74;97413.25;5021444;28;20496;-84
2022/08/04 09:38:39;;;;;;;6.10;2.80;;;;;;;44.71;20.09;97407.75;5040470;28;20116;-82
2022/08/04 09:41:38;;;;;;;5.47;2.70;;;;;;;41.24;23.59;97412.03;5034014;28;20253;-83
2022/08/04 09:44:15;;;;;;;2.72;2.53;;;;;;;43.51;21.51;97408.22;5040341;28;20061;-83
2022/08/04 09:46:56;;;;;;;4.85;3.10;;;;;;;43.96;21.10;97401.75;5037808;28;20029;-83
2022/08/04 09:49:33;;;;;;;3.80;2.80;;;;;;;41.52;23.19;97396.34;5027225;28;20049;-82
2022/08/04 09:52:22;;;;;;;3.20;2.90;;;;;;;41.53;23.00;97401.66;5025393;28;20484;-84
2022/08/04 09:55:01;;;;;;;3.30;2.70;;;;;;;42.61;22.32;97397.28;5030974;28;20410;-82
2022/08/04 09:57:35;;;;;;;2.97;2.78;;;;;;;42.86;22.65;97396.91;5040725;28;20112;-82
2022/08/04 10:00:03;;;;;;;4.43;2.65;;;;;;;42.31;22.70;97394.88;5035777;28;20030;-83
2022/08/04 10:02:35;;;;;;;11.60;4.25;;;;;;;42.94;22.29;97396.22;5032716;28;20053;-83
2022/08/04 10:05:03;;;;;;;4.78;3.22;;;;;;;43.36;22.11;97400.88;5021035;28;20033;-82
2022/08/04 10:07:44;;;;;;;2.65;2.40;;;;;;;43.53;22.10;97398.31;5041792;28;20051;-83
2022/08/04 10:10:33;;;;;;;3.55;2.63;;;;;;;42.00;22.85;97398.06;5013380;28;20519;-83
2022/08/04 10:13:19;;;;;;;16.23;3.58;;;;;;;41.51;23.69;97394.66;5021638;28;20029;-83
2022/08/04 10:16:18;;;;;;;5.82;3.38;;;;;;;43.02;22.42;97392.72;5017746;28;20026;-83
2022/08/04 10:19:08;;;;;;;3.95;2.75;;;;;;;43.07;21.98;97389.81;5029197;28;20033;-82
2022/08/04 10:21:48;;;;;;;3.20;2.80;;;;;;;43.63;21.46;97388.84;5041582;28;20044;-83
2022/08/04 10:24:20;;;;;;;3.88;2.45;;;;;;;45.49;19.26;97371.66;5042359;28;20071;-83
2022/08/04 10:26:57;;;;;;;6.05;2.97;;;;;;;44.04;20.73;97380.44;5044468;28;20486;-82
2022/08/04 10:29:45;;;;;;;3.42;2.47;;;;;;;41.98;21.94;97372.22;5044872;28;20044;-83
2022/08/04 10:32:24;;;;;;;14.73;2.88;;;;;;;43.80;20.66;97365.72;5050239;28;20456;-83
2022/08/04 10:35:32;;;;;;;5.65;2.30;;;;;;;45.95;18.53;97362.75;5029554;28;20519;-83
2022/08/04 10:38:12;;;;;;;4.22;3.60;;;;;;;44.28;19.43;97366.94;4988500;28;20092;-83
2022/08/04 10:40:49;;;;;;;10.55;6.20;;;;;;;43.91;20.07;97355.88;5024225;28;20035;-82
2022/08/04 10:43:24;;;;;;;5.07;3.53;;;;;;;44.51;19.43;97357.41;5038493;27;20064;-83
2022/08/04 10:46:15;;;;;;;3.25;2.40;;;;;;;45.11;19.00;97355.09;5040541;28;20055;-82
2022/08/04 10:49:01;;;;;;;4.50;2.42;;;;;;;44.60;19.23;97357.50;5029062;28;20036;-83
2022/08/04 10:51:47;;;;;;;3.30;2.53;;;;;;;42.59;20.99;97361.00;5042660;28;20112;-83
2022/08/04 10:54:25;;;;;;;6.47;2.90;;;;;;;41.37;22.04;97338.34;5014027;28;20025;-83
2022/08/04 10:56:56;;;;;;;5.07;2.85;;;;;;;40.02;23.06;97349.41;5046048;28;20068;-83
2022/08/04 10:59:25;;;;;;;2.95;2.65;;;;;;;38.30;24.65;97355.09;5025447;28;20029;-82
2022/08/04 11:01:57;;;;;;;6.50;2.72;;;;;;;37.78;25.19;97346.81;5034856;28;20051;-82
2022/08/04 11:04:46;;;;;;;5.68;3.15;;;;;;;37.30;25.13;97341.53;5022311;28;20025;-82
2022/08/04 11:07:12;;;;;;;12.38;3.75;;;;;;;38.13;24.73;97339.69;5021546;28;20023;-82
2022/08/04 11:09:39;;;;;;;4.10;2.58;;;;;;;36.67;26.34;97331.28;5024790;28;20025;-82
2022/08/04 11:12:11;;;;;;;6.32;2.80;;;;;;;36.03;27.44;97347.00;5013057;28;20467;-82
2022/08/04 11:14:58;;;;;;;8.32;3.47;;;;;;;36.04;28.26;97355.13;5027237;28;20488;-82
2022/08/04 11:17:46;;;;;;;3.22;2.95;;;;;;;36.14;27.60;97346.06;5034676;28;20053;-83
2022/08/04 11:20:25;;;;;;;3.67;2.95;;;;;;;37.71;26.26;97340.66;5023537;28;20142;-83
2022/08/04 11:23:07;;;;;;;3.47;2.88;;;;;;;39.54;24.74;97336.94;5023236;28;20032;-83
2022/08/04 11:25:50;;;;;;;9.15;3.08;;;;;;;40.52;24.08;97331.47;5037702;28;20082;-83
2022/08/04 11:28:40;;;;;;;7.55;2.95;;;;;;;42.42;21.81;97328.91;5037447;28;20033;-83
2022/08/04 11:31:09;;;;;;;5.60;3.03;;;;;;;43.28;20.70;97322.69;5040028;28;20484;-83
2022/08/04 11:34:00;;;;;;;3.03;2.70;;;;;;;45.60;18.43;97319.31;5041923;28;20067;-83
2022/08/04 11:37:03;;;;;;;3.90;2.45;;;;;;;46.59;17.90;97310.97;5043324;27;20620;-82
2022/08/04 11:39:36;;;;;;;3.13;2.65;;;;;;;46.08;18.51;97308.91;5043775;28;20033;-82
2022/08/04 11:42:20;;;;;;;4.80;3.08;;;;;;;44.69;19.46;97308.41;5039199;28;20043;-83
2022/08/04 11:44:59;;;;;;;3.83;2.47;;;;;;;44.73;19.46;97314.25;5042573;28;20034;-82
2022/08/04 11:47:29;;;;;;;4.20;2.80;;;;;;;44.00;19.78;97301.22;5025241;28;20033;-83
2022/08/04 11:50:01;;;;;;;3.75;2.95;;;;;;;40.95;22.02;97302.50;5033673;28;20040;-83
2022/08/04 11:52:27;;;;;;;5.25;3.85;;;;;;;42.60;21.08;97280.22;5036210;28;20180;-85
2022/08/04 11:54:54;;;;;;;3.13;2.70;;;;;;;42.81;20.60;97291.97;5014334;28;20113;-83
2022/08/04 11:57:21;;;;;;;4.65;3.20;;;;;;;43.64;19.91;97294.66;5019663;28;20507;-83
2022/08/04 11:59:48;;;;;;;7.30;3.40;;;;;;;43.39;19.97;97290.38;5033946;28;20109;-84
2022/08/04 12:02:28;;;;;;;4.68;3.28;;;;;;;44.05;19.47;97292.69;5040948;28;20053;-82
2022/08/04 12:05:01;;;;;;;6.47;3.50;;;;;;;41.56;21.12;97282.22;5030552;28;20048;-86
2022/08/04 12:07:49;;;;;;;3.10;2.90;;;;;;;42.03;21.02;97290.59;5019580;28;20033;-86
2022/08/04 12:10:23;;;;;;;5.97;3.10;;;;;;;41.42;21.87;97282.09;5028748;28;20515;-86
2022/08/04 12:13:02;;;;;;;4.32;3.10;;;;;;;41.73;21.82;97279.75;5036967;28;20120;-88